sensor_id;sensor_type;location;lat;lon;timestamp;P1;durP1;ratioP1;P2;durP2;ratioP2
59312;SDS011;45084;51.486;7.366;2023-11-18T00:02:00;50.60;;;22.85;;
59312;SDS011;45084;51.486;7.366;2023-11-18T00:04:27;47.03;;;22.33;;
59312;SDS011;45084;51.486;7.366;2023-11-18T00:06:56;50.45;;;22.90;;
59312;SDS011;45084;51.486;7.366;2023-11-18T00:09:23;55.15;;;22.08;;
59312;SDS011;45084;51.486;7.366;2023-11-18T00:11:49;53.22;;;22.30;;
59312;SDS011;45084;51.486;7.366;2023-11-18T00:14:15;54.88;;;22.17;;
59312;SDS011;45084;51.486;7.366;2023-11-18T00:16:40;53.83;;;22.23;;
59312;SDS011;45084;51.486;7.366;2023-11-18T00:19:08;48.55;;;20.83;;
59312;SDS011;45084;51.486;7.366;2023-11-18T00:21:35;45.13;;;19.92;;
59312;SDS011;45084;51.486;7.366;2023-11-18T00:24:04;52.00;;;20.90;;
59312;SDS011;45084;51.486;7.366;2023-11-18T00:26:30;45.40;;;19.83;;
59312;SDS011;45084;51.486;7.366;2023-11-18T00:28:56;46.97;;;19.45;;
59312;SDS011;45084;51.486;7.366;2023-11-18T00:31:24;44.08;;;18.77;;
59312;SDS011;45084;51.486;7.366;2023-11-18T00:33:50;40.80;;;19.80;;
59312;SDS011;45084;51.486;7.366;2023-11-18T00:36:16;41.58;;;18.45;;
59312;SDS011;45084;51.486;7.366;2023-11-18T00:38:41;39.63;;;18.50;;
59312;SDS011;45084;51.486;7.366;2023-11-18T00:41:09;37.28;;;18.38;;
59312;SDS011;45084;51.486;7.366;2023-11-18T00:43:35;41.85;;;19.30;;
59312;SDS011;45084;51.486;7.366;2023-11-18T00:46:01;37.03;;;17.67;;
59312;SDS011;45084;51.486;7.366;2023-11-18T00:48:28;39.47;;;17.13;;
59312;SDS011;45084;51.486;7.366;2023-11-18T00:50:55;40.13;;;18.15;;
59312;SDS011;45084;51.486;7.366;2023-11-18T00:53:23;40.45;;;17.52;;
59312;SDS011;45084;51.486;7.366;2023-11-18T00:55:49;49.97;;;18.90;;
59312;SDS011;45084;51.486;7.366;2023-11-18T00:58:15;45.47;;;20.88;;
59312;SDS011;45084;51.486;7.366;2023-11-18T01:00:40;47.38;;;19.80;;
59312;SDS011;45084;51.486;7.366;2023-11-18T01:03:06;43.10;;;18.52;;
59312;SDS011;45084;51.486;7.366;2023-11-18T01:05:31;47.97;;;20.05;;
59312;SDS011;45084;51.486;7.366;2023-11-18T01:07:59;42.20;;;20.42;;
59312;SDS011;45084;51.486;7.366;2023-11-18T01:10:25;46.28;;;20.25;;
59312;SDS011;45084;51.486;7.366;2023-11-18T01:12:52;44.08;;;21.00;;
59312;SDS011;45084;51.486;7.366;2023-11-18T01:15:20;44.45;;;21.25;;
59312;SDS011;45084;51.486;7.366;2023-11-18T01:17:45;44.35;;;19.17;;
59312;SDS011;45084;51.486;7.366;2023-11-18T01:20:11;38.92;;;19.23;;
59312;SDS011;45084;51.486;7.366;2023-11-18T01:22:41;42.30;;;20.08;;
59312;SDS011;45084;51.486;7.366;2023-11-18T01:25:08;37.10;;;19.42;;
59312;SDS011;45084;51.486;7.366;2023-11-18T01:27:36;43.42;;;19.67;;
59312;SDS011;45084;51.486;7.366;2023-11-18T01:30:01;38.33;;;17.80;;
59312;SDS011;45084;51.486;7.366;2023-11-18T01:32:30;43.55;;;19.02;;
59312;SDS011;45084;51.486;7.366;2023-11-18T01:34:55;42.80;;;19.92;;
59312;SDS011;45084;51.486;7.366;2023-11-18T01:37:22;42.10;;;18.23;;
59312;SDS011;45084;51.486;7.366;2023-11-18T01:39:49;35.22;;;17.67;;
59312;SDS011;45084;51.486;7.366;2023-11-18T01:42:15;35.45;;;18.27;;
59312;SDS011;45084;51.486;7.366;2023-11-18T01:44:42;42.28;;;18.23;;
59312;SDS011;45084;51.486;7.366;2023-11-18T01:47:08;32.05;;;17.13;;
59312;SDS011;45084;51.486;7.366;2023-11-18T01:49:37;35.00;;;17.98;;
59312;SDS011;45084;51.486;7.366;2023-11-18T01:52:05;34.90;;;16.92;;
59312;SDS011;45084;51.486;7.366;2023-11-18T01:54:33;37.40;;;18.13;;
59312;SDS011;45084;51.486;7.366;2023-11-18T01:57:02;38.10;;;16.92;;
59312;SDS011;45084;51.486;7.366;2023-11-18T01:59:34;36.80;;;17.35;;
59312;SDS011;45084;51.486;7.366;2023-11-18T02:02:00;31.75;;;17.02;;
59312;SDS011;45084;51.486;7.366;2023-11-18T02:04:28;38.03;;;19.10;;
59312;SDS011;45084;51.486;7.366;2023-11-18T02:06:54;33.63;;;18.80;;
59312;SDS011;45084;51.486;7.366;2023-11-18T02:09:21;35.03;;;19.02;;
59312;SDS011;45084;51.486;7.366;2023-11-18T02:11:53;38.65;;;19.17;;
59312;SDS011;45084;51.486;7.366;2023-11-18T02:14:26;36.60;;;18.95;;
59312;SDS011;45084;51.486;7.366;2023-11-18T02:16:53;34.03;;;19.02;;
59312;SDS011;45084;51.486;7.366;2023-11-18T02:19:24;42.42;;;20.23;;
59312;SDS011;45084;51.486;7.366;2023-11-18T02:21:50;46.00;;;21.90;;
59312;SDS011;45084;51.486;7.366;2023-11-18T02:24:52;33.72;;;18.85;;
59312;SDS011;45084;51.486;7.366;2023-11-18T02:27:11;35.30;;;17.67;;
59312;SDS011;45084;51.486;7.366;2023-11-18T02:29:37;42.67;;;19.23;;
59312;SDS011;45084;51.486;7.366;2023-11-18T02:34:45;38.13;;;18.92;;
59312;SDS011;45084;51.486;7.366;2023-11-18T02:37:18;37.97;;;17.48;;
59312;SDS011;45084;51.486;7.366;2023-11-18T02:39:46;41.65;;;19.67;;
59312;SDS011;45084;51.486;7.366;2023-11-18T02:42:16;43.78;;;19.33;;
59312;SDS011;45084;51.486;7.366;2023-11-18T02:44:42;41.28;;;18.52;;
59312;SDS011;45084;51.486;7.366;2023-11-18T02:47:08;43.72;;;18.80;;
59312;SDS011;45084;51.486;7.366;2023-11-18T02:49:35;38.53;;;17.67;;
59312;SDS011;45084;51.486;7.366;2023-11-18T02:52:02;38.80;;;17.77;;
59312;SDS011;45084;51.486;7.366;2023-11-18T02:54:27;35.92;;;17.95;;
59312;SDS011;45084;51.486;7.366;2023-11-18T02:56:53;38.05;;;18.38;;
59312;SDS011;45084;51.486;7.366;2023-11-18T02:59:19;37.53;;;17.58;;
59312;SDS011;45084;51.486;7.366;2023-11-18T03:01:45;37.53;;;17.27;;
59312;SDS011;45084;51.486;7.366;2023-11-18T03:04:11;36.10;;;17.00;;
59312;SDS011;45084;51.486;7.366;2023-11-18T03:06:41;33.92;;;16.67;;
59312;SDS011;45084;51.486;7.366;2023-11-18T03:09:07;36.17;;;18.98;;
59312;SDS011;45084;51.486;7.366;2023-11-18T03:11:35;36.45;;;17.40;;
59312;SDS011;45084;51.486;7.366;2023-11-18T03:14:00;31.77;;;16.52;;
59312;SDS011;45084;51.486;7.366;2023-11-18T03:16:26;31.50;;;17.10;;
59312;SDS011;45084;51.486;7.366;2023-11-18T03:18:52;32.13;;;17.55;;
59312;SDS011;45084;51.486;7.366;2023-11-18T03:21:19;32.33;;;16.27;;
59312;SDS011;45084;51.486;7.366;2023-11-18T03:23:45;30.02;;;16.30;;
59312;SDS011;45084;51.486;7.366;2023-11-18T03:26:11;33.90;;;16.42;;
59312;SDS011;45084;51.486;7.366;2023-11-18T03:28:37;33.03;;;16.50;;
59312;SDS011;45084;51.486;7.366;2023-11-18T03:31:03;34.33;;;15.77;;
59312;SDS011;45084;51.486;7.366;2023-11-18T03:33:32;27.88;;;15.38;;
59312;SDS011;45084;51.486;7.366;2023-11-18T03:35:57;27.30;;;15.32;;
59312;SDS011;45084;51.486;7.366;2023-11-18T03:38:23;29.58;;;16.17;;
59312;SDS011;45084;51.486;7.366;2023-11-18T03:40:49;28.27;;;16.60;;
59312;SDS011;45084;51.486;7.366;2023-11-18T03:43:17;28.20;;;15.40;;
59312;SDS011;45084;51.486;7.366;2023-11-18T03:45:43;25.00;;;14.25;;
59312;SDS011;45084;51.486;7.366;2023-11-18T03:48:08;24.35;;;14.23;;
59312;SDS011;45084;51.486;7.366;2023-11-18T03:50:39;26.42;;;14.75;;
59312;SDS011;45084;51.486;7.366;2023-11-18T03:53:05;22.92;;;13.63;;
59312;SDS011;45084;51.486;7.366;2023-11-18T03:55:31;25.33;;;13.80;;
59312;SDS011;45084;51.486;7.366;2023-11-18T03:57:56;25.02;;;14.77;;
59312;SDS011;45084;51.486;7.366;2023-11-18T04:00:22;28.55;;;15.18;;
59312;SDS011;45084;51.486;7.366;2023-11-18T04:02:54;29.30;;;15.63;;
59312;SDS011;45084;51.486;7.366;2023-11-18T04:05:21;31.52;;;15.52;;
59312;SDS011;45084;51.486;7.366;2023-11-18T04:07:47;26.55;;;14.70;;
59312;SDS011;45084;51.486;7.366;2023-11-18T04:10:12;30.52;;;15.30;;
59312;SDS011;45084;51.486;7.366;2023-11-18T04:12:38;31.45;;;15.45;;
59312;SDS011;45084;51.486;7.366;2023-11-18T04:15:04;24.88;;;13.27;;
59312;SDS011;45084;51.486;7.366;2023-11-18T04:17:30;31.73;;;16.30;;
59312;SDS011;45084;51.486;7.366;2023-11-18T04:19:56;25.25;;;14.23;;
59312;SDS011;45084;51.486;7.366;2023-11-18T04:22:22;24.52;;;13.88;;
59312;SDS011;45084;51.486;7.366;2023-11-18T04:24:49;27.60;;;14.60;;
59312;SDS011;45084;51.486;7.366;2023-11-18T04:27:15;28.75;;;14.52;;
59312;SDS011;45084;51.486;7.366;2023-11-18T04:29:41;29.20;;;14.65;;
59312;SDS011;45084;51.486;7.366;2023-11-18T04:32:06;24.45;;;13.40;;
59312;SDS011;45084;51.486;7.366;2023-11-18T04:34:35;27.92;;;14.98;;
59312;SDS011;45084;51.486;7.366;2023-11-18T04:37:01;27.52;;;14.40;;
59312;SDS011;45084;51.486;7.366;2023-11-18T04:39:28;30.67;;;15.52;;
59312;SDS011;45084;51.486;7.366;2023-11-18T04:41:55;30.95;;;16.23;;
59312;SDS011;45084;51.486;7.366;2023-11-18T04:44:21;37.22;;;16.60;;
59312;SDS011;45084;51.486;7.366;2023-11-18T04:46:47;31.63;;;15.93;;
59312;SDS011;45084;51.486;7.366;2023-11-18T04:49:12;37.03;;;18.65;;
59312;SDS011;45084;51.486;7.366;2023-11-18T04:51:38;37.45;;;18.77;;
59312;SDS011;45084;51.486;7.366;2023-11-18T04:54:04;38.60;;;19.50;;
59312;SDS011;45084;51.486;7.366;2023-11-18T04:56:32;37.92;;;17.55;;
59312;SDS011;45084;51.486;7.366;2023-11-18T04:59:00;34.65;;;18.70;;
59312;SDS011;45084;51.486;7.366;2023-11-18T05:01:26;35.13;;;17.90;;
59312;SDS011;45084;51.486;7.366;2023-11-18T05:03:51;35.08;;;18.50;;
59312;SDS011;45084;51.486;7.366;2023-11-18T05:06:17;32.47;;;18.05;;
59312;SDS011;45084;51.486;7.366;2023-11-18T05:08:45;32.83;;;16.48;;
59312;SDS011;45084;51.486;7.366;2023-11-18T05:11:10;30.73;;;16.50;;
59312;SDS011;45084;51.486;7.366;2023-11-18T05:13:37;31.63;;;17.45;;
59312;SDS011;45084;51.486;7.366;2023-11-18T05:16:05;27.85;;;17.63;;
59312;SDS011;45084;51.486;7.366;2023-11-18T05:18:31;30.80;;;17.27;;
59312;SDS011;45084;51.486;7.366;2023-11-18T05:21:01;33.05;;;16.75;;
59312;SDS011;45084;51.486;7.366;2023-11-18T05:23:28;29.15;;;17.05;;
59312;SDS011;45084;51.486;7.366;2023-11-18T05:25:54;27.55;;;15.60;;
59312;SDS011;45084;51.486;7.366;2023-11-18T05:28:21;29.33;;;16.52;;
59312;SDS011;45084;51.486;7.366;2023-11-18T05:30:47;29.65;;;15.35;;
59312;SDS011;45084;51.486;7.366;2023-11-18T05:33:12;28.38;;;16.10;;
59312;SDS011;45084;51.486;7.366;2023-11-18T05:35:42;28.73;;;15.75;;
59312;SDS011;45084;51.486;7.366;2023-11-18T05:38:15;25.48;;;14.82;;
59312;SDS011;45084;51.486;7.366;2023-11-18T05:40:43;26.70;;;15.27;;
59312;SDS011;45084;51.486;7.366;2023-11-18T05:43:20;24.35;;;15.18;;
59312;SDS011;45084;51.486;7.366;2023-11-18T05:45:47;23.17;;;14.52;;
59312;SDS011;45084;51.486;7.366;2023-11-18T05:48:31;26.55;;;15.10;;
59312;SDS011;45084;51.486;7.366;2023-11-18T05:50:57;33.55;;;15.77;;
59312;SDS011;45084;51.486;7.366;2023-11-18T05:53:22;30.77;;;16.90;;
59312;SDS011;45084;51.486;7.366;2023-11-18T05:55:48;28.42;;;16.55;;
59312;SDS011;45084;51.486;7.366;2023-11-18T05:58:15;29.60;;;17.17;;
59312;SDS011;45084;51.486;7.366;2023-11-18T06:00:41;25.80;;;15.90;;
59312;SDS011;45084;51.486;7.366;2023-11-18T06:03:06;27.05;;;16.45;;
59312;SDS011;45084;51.486;7.366;2023-11-18T06:05:32;32.40;;;15.35;;
59312;SDS011;45084;51.486;7.366;2023-11-18T06:07:59;29.02;;;16.45;;
59312;SDS011;45084;51.486;7.366;2023-11-18T06:10:34;25.10;;;14.87;;
59312;SDS011;45084;51.486;7.366;2023-11-18T06:13:06;25.20;;;15.05;;
59312;SDS011;45084;51.486;7.366;2023-11-18T06:15:32;24.80;;;14.98;;
59312;SDS011;45084;51.486;7.366;2023-11-18T06:17:58;35.40;;;15.45;;
59312;SDS011;45084;51.486;7.366;2023-11-18T06:20:23;25.67;;;15.60;;
59312;SDS011;45084;51.486;7.366;2023-11-18T06:22:49;26.92;;;15.30;;
59312;SDS011;45084;51.486;7.366;2023-11-18T06:25:15;24.80;;;14.60;;
59312;SDS011;45084;51.486;7.366;2023-11-18T06:27:43;27.83;;;15.05;;
59312;SDS011;45084;51.486;7.366;2023-11-18T06:30:10;26.63;;;15.73;;
59312;SDS011;45084;51.486;7.366;2023-11-18T06:32:37;26.02;;;16.30;;
59312;SDS011;45084;51.486;7.366;2023-11-18T06:35:04;25.00;;;15.77;;
59312;SDS011;45084;51.486;7.366;2023-11-18T06:37:33;25.95;;;15.32;;
59312;SDS011;45084;51.486;7.366;2023-11-18T06:39:59;26.20;;;15.45;;
59312;SDS011;45084;51.486;7.366;2023-11-18T06:42:25;28.08;;;15.60;;
59312;SDS011;45084;51.486;7.366;2023-11-18T06:44:50;23.50;;;14.80;;
59312;SDS011;45084;51.486;7.366;2023-11-18T06:47:16;28.30;;;15.20;;
59312;SDS011;45084;51.486;7.366;2023-11-18T06:49:44;21.95;;;13.60;;
59312;SDS011;45084;51.486;7.366;2023-11-18T06:52:13;24.95;;;14.88;;
59312;SDS011;45084;51.486;7.366;2023-11-18T06:54:41;24.65;;;14.23;;
59312;SDS011;45084;51.486;7.366;2023-11-18T06:57:07;24.05;;;14.65;;
59312;SDS011;45084;51.486;7.366;2023-11-18T06:59:33;23.63;;;13.60;;
59312;SDS011;45084;51.486;7.366;2023-11-18T07:01:59;21.33;;;14.18;;
59312;SDS011;45084;51.486;7.366;2023-11-18T07:04:25;25.90;;;14.98;;
59312;SDS011;45084;51.486;7.366;2023-11-18T07:06:50;24.20;;;15.25;;
59312;SDS011;45084;51.486;7.366;2023-11-18T07:09:16;21.40;;;13.68;;
59312;SDS011;45084;51.486;7.366;2023-11-18T07:11:45;21.95;;;13.32;;
59312;SDS011;45084;51.486;7.366;2023-11-18T07:14:14;24.27;;;14.25;;
59312;SDS011;45084;51.486;7.366;2023-11-18T07:16:40;23.55;;;14.38;;
59312;SDS011;45084;51.486;7.366;2023-11-18T07:19:09;23.50;;;13.93;;
59312;SDS011;45084;51.486;7.366;2023-11-18T07:21:42;22.20;;;14.13;;
59312;SDS011;45084;51.486;7.366;2023-11-18T07:24:08;23.38;;;15.02;;
59312;SDS011;45084;51.486;7.366;2023-11-18T07:26:37;23.13;;;13.88;;
59312;SDS011;45084;51.486;7.366;2023-11-18T07:29:02;28.75;;;14.90;;
59312;SDS011;45084;51.486;7.366;2023-11-18T07:31:28;20.92;;;13.20;;
59312;SDS011;45084;51.486;7.366;2023-11-18T07:33:54;25.38;;;14.35;;
59312;SDS011;45084;51.486;7.366;2023-11-18T07:36:21;22.35;;;14.18;;
59312;SDS011;45084;51.486;7.366;2023-11-18T07:38:47;24.80;;;13.98;;
59312;SDS011;45084;51.486;7.366;2023-11-18T07:41:12;22.10;;;13.88;;
59312;SDS011;45084;51.486;7.366;2023-11-18T07:43:51;20.15;;;12.93;;
59312;SDS011;45084;51.486;7.366;2023-11-18T07:46:19;24.15;;;14.48;;
59312;SDS011;45084;51.486;7.366;2023-11-18T07:48:47;21.98;;;13.85;;
59312;SDS011;45084;51.486;7.366;2023-11-18T07:51:14;21.33;;;14.18;;
59312;SDS011;45084;51.486;7.366;2023-11-18T07:53:40;19.02;;;13.23;;
59312;SDS011;45084;51.486;7.366;2023-11-18T07:56:07;21.92;;;12.68;;
59312;SDS011;45084;51.486;7.366;2023-11-18T07:58:36;21.15;;;13.88;;
59312;SDS011;45084;51.486;7.366;2023-11-18T08:01:02;20.52;;;12.90;;
59312;SDS011;45084;51.486;7.366;2023-11-18T08:03:32;16.38;;;11.65;;
59312;SDS011;45084;51.486;7.366;2023-11-18T08:05:58;18.88;;;11.07;;
59312;SDS011;45084;51.486;7.366;2023-11-18T08:08:24;18.05;;;11.43;;
59312;SDS011;45084;51.486;7.366;2023-11-18T08:10:50;19.60;;;11.65;;
59312;SDS011;45084;51.486;7.366;2023-11-18T08:13:16;15.98;;;10.88;;
59312;SDS011;45084;51.486;7.366;2023-11-18T08:15:42;18.73;;;11.55;;
59312;SDS011;45084;51.486;7.366;2023-11-18T08:18:11;18.80;;;11.13;;
59312;SDS011;45084;51.486;7.366;2023-11-18T08:20:37;17.80;;;10.82;;
59312;SDS011;45084;51.486;7.366;2023-11-18T08:23:03;19.50;;;12.07;;
59312;SDS011;45084;51.486;7.366;2023-11-18T08:25:32;16.23;;;10.95;;
59312;SDS011;45084;51.486;7.366;2023-11-18T08:27:59;17.20;;;11.10;;
59312;SDS011;45084;51.486;7.366;2023-11-18T08:30:28;16.10;;;10.38;;
59312;SDS011;45084;51.486;7.366;2023-11-18T08:32:54;16.58;;;10.32;;
59312;SDS011;45084;51.486;7.366;2023-11-18T08:35:20;15.18;;;10.05;;
59312;SDS011;45084;51.486;7.366;2023-11-18T08:37:46;16.52;;;10.93;;
59312;SDS011;45084;51.486;7.366;2023-11-18T08:40:13;17.90;;;11.50;;
59312;SDS011;45084;51.486;7.366;2023-11-18T08:42:46;16.38;;;10.70;;
59312;SDS011;45084;51.486;7.366;2023-11-18T08:45:18;14.93;;;10.27;;
59312;SDS011;45084;51.486;7.366;2023-11-18T08:47:52;14.80;;;9.93;;
59312;SDS011;45084;51.486;7.366;2023-11-18T08:50:18;13.70;;;9.73;;
59312;SDS011;45084;51.486;7.366;2023-11-18T08:52:46;14.57;;;9.77;;
59312;SDS011;45084;51.486;7.366;2023-11-18T08:55:12;13.65;;;9.20;;
59312;SDS011;45084;51.486;7.366;2023-11-18T08:57:46;13.18;;;8.55;;
59312;SDS011;45084;51.486;7.366;2023-11-18T09:00:28;12.73;;;8.60;;
59312;SDS011;45084;51.486;7.366;2023-11-18T09:03:09;15.50;;;8.60;;
59312;SDS011;45084;51.486;7.366;2023-11-18T09:05:42;12.35;;;7.88;;
59312;SDS011;45084;51.486;7.366;2023-11-18T09:08:21;17.10;;;8.40;;
59312;SDS011;45084;51.486;7.366;2023-11-18T09:10:51;12.45;;;7.40;;
59312;SDS011;45084;51.486;7.366;2023-11-18T09:13:21;12.13;;;7.63;;
59312;SDS011;45084;51.486;7.366;2023-11-18T09:15:48;11.73;;;7.70;;
59312;SDS011;45084;51.486;7.366;2023-11-18T09:18:14;11.43;;;7.60;;
59312;SDS011;45084;51.486;7.366;2023-11-18T09:20:42;11.93;;;7.97;;
59312;SDS011;45084;51.486;7.366;2023-11-18T09:23:08;11.10;;;7.25;;
59312;SDS011;45084;51.486;7.366;2023-11-18T09:25:34;13.05;;;7.57;;
59312;SDS011;45084;51.486;7.366;2023-11-18T09:28:01;12.75;;;6.95;;
59312;SDS011;45084;51.486;7.366;2023-11-18T09:30:28;11.55;;;6.88;;
59312;SDS011;45084;51.486;7.366;2023-11-18T09:32:54;12.10;;;7.25;;
59312;SDS011;45084;51.486;7.366;2023-11-18T09:35:20;11.70;;;7.00;;
59312;SDS011;45084;51.486;7.366;2023-11-18T09:37:46;14.68;;;6.72;;
59312;SDS011;45084;51.486;7.366;2023-11-18T09:40:14;10.50;;;6.35;;
59312;SDS011;45084;51.486;7.366;2023-11-18T09:42:43;11.75;;;6.72;;
59312;SDS011;45084;51.486;7.366;2023-11-18T09:45:09;8.48;;;6.55;;
59312;SDS011;45084;51.486;7.366;2023-11-18T09:47:39;9.55;;;6.10;;
59312;SDS011;45084;51.486;7.366;2023-11-18T09:50:08;10.43;;;6.10;;
59312;SDS011;45084;51.486;7.366;2023-11-18T09:52:37;10.20;;;6.10;;
59312;SDS011;45084;51.486;7.366;2023-11-18T09:55:15;8.32;;;5.72;;
59312;SDS011;45084;51.486;7.366;2023-11-18T09:57:59;8.25;;;6.30;;
59312;SDS011;45084;51.486;7.366;2023-11-18T10:00:31;13.38;;;6.38;;
59312;SDS011;45084;51.486;7.366;2023-11-18T10:02:58;7.53;;;5.85;;
59312;SDS011;45084;51.486;7.366;2023-11-18T10:05:26;8.15;;;5.55;;
59312;SDS011;45084;51.486;7.366;2023-11-18T10:07:55;8.35;;;5.53;;
59312;SDS011;45084;51.486;7.366;2023-11-18T10:10:30;7.68;;;5.28;;
59312;SDS011;45084;51.486;7.366;2023-11-18T10:13:17;9.38;;;5.50;;
59312;SDS011;45084;51.486;7.366;2023-11-18T10:15:49;10.40;;;6.55;;
59312;SDS011;45084;51.486;7.366;2023-11-18T10:18:18;10.82;;;5.63;;
59312;SDS011;45084;51.486;7.366;2023-11-18T10:20:49;8.95;;;6.15;;
59312;SDS011;45084;51.486;7.366;2023-11-18T10:23:19;11.20;;;6.10;;
59312;SDS011;45084;51.486;7.366;2023-11-18T10:25:47;7.13;;;5.47;;
59312;SDS011;45084;51.486;7.366;2023-11-18T10:30:57;10.48;;;6.63;;
59312;SDS011;45084;51.486;7.366;2023-11-18T10:33:28;11.23;;;5.60;;
59312;SDS011;45084;51.486;7.366;2023-11-18T10:36:01;9.63;;;6.03;;
59312;SDS011;45084;51.486;7.366;2023-11-18T10:38:30;9.05;;;5.93;;
59312;SDS011;45084;51.486;7.366;2023-11-18T10:40:57;8.07;;;5.85;;
59312;SDS011;45084;51.486;7.366;2023-11-18T10:43:26;8.18;;;5.22;;
59312;SDS011;45084;51.486;7.366;2023-11-18T10:46:13;9.20;;;5.90;;
59312;SDS011;45084;51.486;7.366;2023-11-18T10:48:40;7.45;;;5.40;;
59312;SDS011;45084;51.486;7.366;2023-11-18T10:51:07;7.35;;;4.95;;
59312;SDS011;45084;51.486;7.366;2023-11-18T10:53:42;6.45;;;5.30;;
59312;SDS011;45084;51.486;7.366;2023-11-18T10:56:18;10.57;;;5.82;;
59312;SDS011;45084;51.486;7.366;2023-11-18T10:58:51;7.50;;;4.68;;
59312;SDS011;45084;51.486;7.366;2023-11-18T11:01:27;7.22;;;5.30;;
59312;SDS011;45084;51.486;7.366;2023-11-18T11:03:59;6.63;;;5.05;;
59312;SDS011;45084;51.486;7.366;2023-11-18T11:06:29;12.48;;;5.63;;
59312;SDS011;45084;51.486;7.366;2023-11-18T11:08:56;11.23;;;5.47;;
59312;SDS011;45084;51.486;7.366;2023-11-18T11:11:28;8.43;;;5.45;;
59312;SDS011;45084;51.486;7.366;2023-11-18T11:14:03;8.15;;;5.45;;
59312;SDS011;45084;51.486;7.366;2023-11-18T11:16:33;6.25;;;5.00;;
59312;SDS011;45084;51.486;7.366;2023-11-18T11:19:08;13.07;;;5.60;;
59312;SDS011;45084;51.486;7.366;2023-11-18T11:22:04;12.45;;;5.93;;
59312;SDS011;45084;51.486;7.366;2023-11-18T11:27:32;9.55;;;6.47;;
59312;SDS011;45084;51.486;7.366;2023-11-18T11:30:21;9.40;;;5.55;;
59312;SDS011;45084;51.486;7.366;2023-11-18T11:33:12;8.27;;;5.55;;
59312;SDS011;45084;51.486;7.366;2023-11-18T11:35:41;14.18;;;5.43;;
59312;SDS011;45084;51.486;7.366;2023-11-18T11:38:14;8.30;;;5.97;;
59312;SDS011;45084;51.486;7.366;2023-11-18T11:40:42;9.10;;;5.18;;
59312;SDS011;45084;51.486;7.366;2023-11-18T11:43:09;10.00;;;4.97;;
59312;SDS011;45084;51.486;7.366;2023-11-18T11:45:40;7.30;;;5.15;;
59312;SDS011;45084;51.486;7.366;2023-11-18T11:48:08;7.53;;;4.80;;
59312;SDS011;45084;51.486;7.366;2023-11-18T11:50:42;8.65;;;5.47;;
59312;SDS011;45084;51.486;7.366;2023-11-18T11:53:33;8.95;;;5.00;;
59312;SDS011;45084;51.486;7.366;2023-11-18T11:56:04;10.98;;;5.07;;
59312;SDS011;45084;51.486;7.366;2023-11-18T11:58:34;7.70;;;4.70;;
59312;SDS011;45084;51.486;7.366;2023-11-18T12:04:11;8.93;;;5.03;;
59312;SDS011;45084;51.486;7.366;2023-11-18T12:06:46;10.48;;;5.78;;
59312;SDS011;45084;51.486;7.366;2023-11-18T12:09:16;10.38;;;5.78;;
59312;SDS011;45084;51.486;7.366;2023-11-18T12:11:45;7.15;;;5.25;;
59312;SDS011;45084;51.486;7.366;2023-11-18T12:14:14;8.50;;;5.80;;
59312;SDS011;45084;51.486;7.366;2023-11-18T12:16:58;10.52;;;6.15;;
59312;SDS011;45084;51.486;7.366;2023-11-18T12:19:40;9.27;;;5.78;;
59312;SDS011;45084;51.486;7.366;2023-11-18T12:22:12;7.50;;;6.05;;
59312;SDS011;45084;51.486;7.366;2023-11-18T12:41:54;9.70;;;5.88;;
59312;SDS011;45084;51.486;7.366;2023-11-18T12:44:11;8.38;;;5.43;;
59312;SDS011;45084;51.486;7.366;2023-11-18T12:46:50;8.05;;;5.45;;
59312;SDS011;45084;51.486;7.366;2023-11-18T12:49:36;7.78;;;5.80;;
59312;SDS011;45084;51.486;7.366;2023-11-18T12:52:06;11.13;;;6.00;;
59312;SDS011;45084;51.486;7.366;2023-11-18T12:54:33;9.75;;;6.50;;
59312;SDS011;45084;51.486;7.366;2023-11-18T12:57:03;10.55;;;5.97;;
59312;SDS011;45084;51.486;7.366;2023-11-18T12:59:32;9.52;;;6.90;;
59312;SDS011;45084;51.486;7.366;2023-11-18T13:01:58;11.27;;;6.30;;
59312;SDS011;45084;51.486;7.366;2023-11-18T13:04:29;9.50;;;6.35;;
59312;SDS011;45084;51.486;7.366;2023-11-18T13:06:55;7.82;;;6.43;;
59312;SDS011;45084;51.486;7.366;2023-11-18T13:09:22;7.32;;;5.85;;
59312;SDS011;45084;51.486;7.366;2023-11-18T13:11:52;9.88;;;6.25;;
59312;SDS011;45084;51.486;7.366;2023-11-18T13:14:21;12.27;;;5.65;;
59312;SDS011;45084;51.486;7.366;2023-11-18T13:16:55;11.13;;;5.72;;
59312;SDS011;45084;51.486;7.366;2023-11-18T13:19:27;9.25;;;5.90;;
59312;SDS011;45084;51.486;7.366;2023-11-18T13:22:00;9.10;;;5.18;;
59312;SDS011;45084;51.486;7.366;2023-11-18T13:24:32;10.27;;;5.60;;
59312;SDS011;45084;51.486;7.366;2023-11-18T13:27:02;8.80;;;5.25;;
59312;SDS011;45084;51.486;7.366;2023-11-18T13:29:32;7.72;;;4.97;;
59312;SDS011;45084;51.486;7.366;2023-11-18T13:32:00;7.60;;;5.22;;
59312;SDS011;45084;51.486;7.366;2023-11-18T13:34:29;8.00;;;4.88;;
59312;SDS011;45084;51.486;7.366;2023-11-18T13:37:11;8.77;;;5.97;;
59312;SDS011;45084;51.486;7.366;2023-11-18T13:39:42;6.88;;;4.75;;
59312;SDS011;45084;51.486;7.366;2023-11-18T13:42:24;7.97;;;5.47;;
59312;SDS011;45084;51.486;7.366;2023-11-18T13:45:02;9.82;;;4.80;;
59312;SDS011;45084;51.486;7.366;2023-11-18T13:47:36;5.30;;;4.57;;
59312;SDS011;45084;51.486;7.366;2023-11-18T13:50:10;8.77;;;5.85;;
59312;SDS011;45084;51.486;7.366;2023-11-18T13:52:39;7.03;;;4.78;;
59312;SDS011;45084;51.486;7.366;2023-11-18T13:55:07;5.70;;;4.60;;
59312;SDS011;45084;51.486;7.366;2023-11-18T13:57:35;7.85;;;4.85;;
59312;SDS011;45084;51.486;7.366;2023-11-18T14:00:01;6.95;;;4.70;;
59312;SDS011;45084;51.486;7.366;2023-11-18T14:02:34;6.88;;;5.05;;
59312;SDS011;45084;51.486;7.366;2023-11-18T14:05:21;6.70;;;5.20;;
59312;SDS011;45084;51.486;7.366;2023-11-18T14:07:48;8.95;;;5.72;;
59312;SDS011;45084;51.486;7.366;2023-11-18T14:10:14;6.82;;;4.10;;
59312;SDS011;45084;51.486;7.366;2023-11-18T14:12:54;8.73;;;5.68;;
59312;SDS011;45084;51.486;7.366;2023-11-18T14:15:38;7.90;;;5.43;;
59312;SDS011;45084;51.486;7.366;2023-11-18T14:18:07;6.72;;;5.07;;
59312;SDS011;45084;51.486;7.366;2023-11-18T14:20:35;8.70;;;5.93;;
59312;SDS011;45084;51.486;7.366;2023-11-18T14:23:05;7.30;;;4.78;;
59312;SDS011;45084;51.486;7.366;2023-11-18T14:25:34;6.65;;;4.72;;
59312;SDS011;45084;51.486;7.366;2023-11-18T14:28:00;7.18;;;5.50;;
59312;SDS011;45084;51.486;7.366;2023-11-18T14:30:27;5.28;;;4.07;;
59312;SDS011;45084;51.486;7.366;2023-11-18T14:32:53;6.65;;;4.65;;
59312;SDS011;45084;51.486;7.366;2023-11-18T14:35:19;10.02;;;5.05;;
59312;SDS011;45084;51.486;7.366;2023-11-18T14:37:45;5.90;;;4.03;;
59312;SDS011;45084;51.486;7.366;2023-11-18T14:40:17;8.52;;;5.07;;
59312;SDS011;45084;51.486;7.366;2023-11-18T14:42:49;6.57;;;3.95;;
59312;SDS011;45084;51.486;7.366;2023-11-18T14:45:15;4.90;;;3.80;;
59312;SDS011;45084;51.486;7.366;2023-11-18T14:47:42;5.35;;;3.58;;
59312;SDS011;45084;51.486;7.366;2023-11-18T14:50:11;7.50;;;3.25;;
59312;SDS011;45084;51.486;7.366;2023-11-18T14:52:43;5.70;;;3.30;;
59312;SDS011;45084;51.486;7.366;2023-11-18T14:55:10;6.32;;;3.38;;
59312;SDS011;45084;51.486;7.366;2023-11-18T14:57:40;4.20;;;2.92;;
59312;SDS011;45084;51.486;7.366;2023-11-18T15:00:11;6.57;;;3.10;;
59312;SDS011;45084;51.486;7.366;2023-11-18T15:02:47;5.45;;;3.28;;
59312;SDS011;45084;51.486;7.366;2023-11-18T15:05:17;5.80;;;2.85;;
59312;SDS011;45084;51.486;7.366;2023-11-18T15:07:46;3.90;;;2.50;;
59312;SDS011;45084;51.486;7.366;2023-11-18T15:10:14;9.95;;;3.13;;